RVD weather

Public forecast

Using degrees Celsius for public forecast. Weather courtesy of forecast.io.

Closest aviation weather report (METAR) to Rivadavia Airport

Closest report is El Plumerillo Airport, 28.7 nm (53.1 km) NW. Retrieved 2020/08/11 23:00 UTC (57 minutes ago):

SAME 112300Z 00000KT CAVOK 08/M07 Q1017

Closest aviation forecast (TAF) to Rivadavia Airport

Closest forecast is El Plumerillo Airport, 28.7 nm (53.1 km) NW. Retrieved 2020/08/11 18:00 UTC (6 hours ago):

TAF SAME 111700Z 1118/1218 36010KT CAVOK TX14/1120Z TN01/1211Z BECMG 1206/1208 18005KT